Time;durP1;ratioP1;P1;durP2;ratioP2;P2;SDS_P1;SDS_P2;PMS_P1;PMS_P2;Temp;Humidity;BMP_temperature;BMP_pressure;BME280_temperature;BME280_humidity;BME280_pressure;Samples;Min_cycle;Max_cycle;Signal;HPM_P1;HPM_P2
2022/01/27 00:01:06;;;;;;;29.70;16.27;;;;;;;8.56;61.70;102602.34;5258323;27;20881;-43
2022/01/27 00:03:47;;;;;;;35.22;17.85;;;;;;;8.56;61.79;102603.16;5300330;27;20494;-44
2022/01/27 00:06:19;;;;;;;40.05;17.58;;;;;;;8.55;61.73;102604.13;5305443;27;20531;-43
2022/01/27 00:08:56;;;;;;;33.60;18.55;;;;;;;8.53;61.70;102582.28;5298922;27;20795;-43
2022/01/27 00:11:28;;;;;;;31.73;16.85;;;;;;;8.53;61.60;102590.19;5301776;27;20956;-44
2022/01/27 00:14:02;;;;;;;39.78;18.27;;;;;;;8.57;61.54;102631.19;5299958;27;20402;-43
2022/01/27 00:16:40;;;;;;;38.47;19.08;;;;;;;8.52;61.41;102591.16;5294243;27;20771;-45
2022/01/27 00:19:13;;;;;;;34.30;19.47;;;;;;;8.61;61.38;102611.66;5294210;27;20535;-45
2022/01/27 00:21:45;;;;;;;36.03;19.88;;;;;;;8.59;61.43;102591.63;5300130;27;20793;-43
2022/01/27 00:24:18;;;;;;;40.45;19.52;;;;;;;8.56;61.39;102587.38;5294681;27;20494;-43
2022/01/27 00:26:53;;;;;;;37.67;18.80;;;;;;;7.98;61.23;102475.06;5299496;27;20432;-45
2022/01/27 00:29:25;;;;;;;33.05;19.38;;;;;;;8.56;61.32;102587.38;5296583;27;20458;-46
2022/01/27 00:31:59;;;;;;;35.58;19.95;;;;;;;8.56;61.28;102597.06;5306970;27;20927;-43
2022/01/27 00:34:32;;;;;;;38.95;21.55;;;;;;;8.57;61.28;102589.06;5298292;27;20852;-49
2022/01/27 00:37:05;;;;;;;40.00;22.38;;;;;;;8.53;61.14;102566.50;5302290;27;20478;-58
2022/01/27 00:39:37;;;;;;;37.88;22.08;;;;;;;8.35;61.18;102528.09;5294523;27;20415;-45
2022/01/27 00:42:10;;;;;;;36.13;20.90;;;;;;;8.37;61.14;102532.31;5301550;27;20403;-47
2022/01/27 00:44:42;;;;;;;35.78;21.48;;;;;;;8.51;61.18;102542.03;5299707;27;20494;-43
2022/01/27 00:47:16;;;;;;;40.60;22.33;;;;;;;8.49;61.07;102536.03;5298480;27;20498;-53
2022/01/27 00:49:48;;;;;;;42.30;23.45;;;;;;;8.48;61.05;102543.06;5303583;27;20505;-42
2022/01/27 00:52:28;;;;;;;45.55;22.70;;;;;;;8.40;61.08;102528.69;5297532;27;20414;-47
2022/01/27 00:55:01;;;;;;;39.33;22.05;;;;;;;8.43;60.95;102512.72;5293030;27;20402;-45
2022/01/27 00:57:45;;;;;;;39.08;23.25;;;;;;;8.41;61.01;102525.13;5288237;27;20418;-47
2022/01/27 01:00:25;;;;;;;41.75;21.55;;;;;;;8.34;61.02;102521.97;5283351;27;20427;-45
2022/01/27 01:03:04;;;;;;;36.65;22.33;;;;;;;8.32;60.89;102515.94;5291197;27;20399;-43
2022/01/27 01:06:00;;;;;;;42.60;23.33;;;;;;;8.05;60.75;102466.72;5287505;27;20405;-44
2022/01/27 01:14:36;;;;;;;42.50;25.05;;;;;;;8.09;60.86;102468.22;5286029;27;20398;-43
2022/01/27 01:17:25;;;;;;;46.63;25.02;;;;;;;7.94;60.84;102457.78;5285946;27;20434;-44
2022/01/27 01:20:21;;;;;;;41.03;25.92;;;;;;;8.08;60.78;102499.88;5279577;27;20414;-43
2022/01/27 01:31:32;;;;;;;43.13;26.98;;;;;;;8.00;60.74;102457.41;5275038;27;20457;-43
2022/01/27 01:34:12;;;;;;;46.95;26.40;;;;;;;7.97;60.72;102458.44;5283816;27;20473;-42
2022/01/27 01:36:55;;;;;;;46.55;25.75;;;;;;;7.96;60.77;102463.75;5284006;27;20406;-43
2022/01/27 01:39:30;;;;;;;43.10;23.95;;;;;;;7.96;60.44;102456.75;5290912;27;20478;-43
2022/01/27 01:42:07;;;;;;;45.22;23.77;;;;;;;7.77;60.79;102457.00;5282565;27;20413;-45
2022/01/27 01:44:41;;;;;;;45.25;24.15;;;;;;;7.91;60.87;102492.16;5277277;27;20398;-44
2022/01/27 01:47:13;;;;;;;50.35;25.30;;;;;;;7.92;60.84;102485.94;5278426;27;20430;-45
2022/01/27 01:49:45;;;;;;;43.90;24.13;;;;;;;7.80;60.66;102462.09;5284172;27;20502;-43
2022/01/27 01:52:19;;;;;;;51.03;25.08;;;;;;;7.89;60.74;102480.88;5285783;27;20477;-44
2022/01/27 01:54:52;;;;;;;48.17;24.67;;;;;;;7.89;60.69;102496.66;5278593;27;20433;-50
2022/01/27 01:57:25;;;;;;;41.17;23.60;;;;;;;7.88;60.76;102492.34;5288647;27;20821;-43
2022/01/27 01:59:58;;;;;;;40.97;22.77;;;;;;;7.89;60.78;102496.66;5288784;27;20418;-43
2022/01/27 02:02:31;;;;;;;43.67;24.88;;;;;;;7.90;60.70;102487.81;5285874;27;20407;-45
2022/01/27 02:05:05;;;;;;;47.25;24.17;;;;;;;7.88;60.69;102490.56;5288276;27;20865;-44
2022/01/27 02:07:56;;;;;;;49.28;24.20;;;;;;;7.89;60.71;102481.72;5284280;27;21027;-46
2022/01/27 02:17:48;;;;;;;42.35;22.67;;;;;;;7.89;60.72;102476.44;5278405;27;20397;-47
2022/01/27 02:19:18;;;;;;;38.25;21.98;;;;;;;7.96;60.79;102471.66;5277249;27;20794;-45
2022/01/27 02:21:54;;;;;;;46.23;22.63;;;;;;;7.98;61.05;102462.75;5279754;27;20502;-45
2022/01/27 02:24:31;;;;;;;43.57;23.30;;;;;;;8.02;60.87;102476.56;5280720;27;28619;-43
2022/01/27 02:27:06;;;;;;;43.38;23.05;;;;;;;8.02;61.00;102458.13;5282640;27;20507;-45
2022/01/27 02:29:40;;;;;;;40.97;21.95;;;;;;;8.03;60.95;102449.31;5275710;27;20892;-46
2022/01/27 02:32:13;;;;;;;43.97;23.10;;;;;;;8.06;60.78;102441.25;5278614;27;20404;-50
2022/01/27 02:34:46;;;;;;;46.42;25.15;;;;;;;8.07;60.82;102430.59;5281585;27;20833;-42
2022/01/27 02:37:20;;;;;;;48.63;23.48;;;;;;;8.07;60.94;102429.75;5286881;27;20443;-43
2022/01/27 02:39:52;;;;;;;43.00;21.45;;;;;;;8.08;60.79;102429.69;5283566;27;20496;-43
2022/01/27 02:42:35;;;;;;;46.67;21.40;;;;;;;8.09;60.99;102426.09;5277578;27;21176;-44
2022/01/27 02:45:13;;;;;;;46.47;23.27;;;;;;;8.09;61.00;102436.63;5282623;27;20406;-46
2022/01/27 02:47:46;;;;;;;41.50;21.63;;;;;;;8.12;60.96;102429.50;5282186;27;20437;-43
2022/01/27 02:50:18;;;;;;;40.03;21.48;;;;;;;8.12;61.01;102397.91;5282708;27;20422;-43
2022/01/27 02:52:52;;;;;;;51.88;20.90;;;;;;;8.10;61.11;102384.84;5282714;27;20424;-43
2022/01/27 02:55:25;;;;;;;47.58;20.67;;;;;;;8.12;61.15;102382.97;5279634;27;20476;-47
2022/01/27 02:57:58;;;;;;;36.95;19.27;;;;;;;8.08;61.10;102403.38;5279884;27;22845;-52
2022/01/27 03:00:32;;;;;;;45.42;21.15;;;;;;;8.09;61.21;102399.78;5290550;27;20523;-42
2022/01/27 03:03:05;;;;;;;38.30;19.27;;;;;;;8.12;61.20;102403.19;5277318;27;20934;-42
2022/01/27 03:05:37;;;;;;;40.63;19.95;;;;;;;8.13;61.20;102395.19;5280218;27;20398;-44
2022/01/27 03:08:12;;;;;;;50.05;21.52;;;;;;;8.16;61.11;102389.72;5282783;27;20467;-43
2022/01/27 03:10:49;;;;;;;40.03;20.17;;;;;;;8.16;61.21;102388.88;5280910;27;20509;-43
2022/01/27 03:13:21;;;;;;;42.58;18.55;;;;;;;8.17;61.00;102370.34;5280257;27;20428;-43
2022/01/27 03:15:54;;;;;;;39.13;19.15;;;;;;;8.25;61.09;102378.63;5286647;27;21000;-43
2022/01/27 03:18:26;;;;;;;38.13;19.17;;;;;;;8.20;61.13;102375.41;5285421;27;20424;-44
2022/01/27 03:20:59;;;;;;;37.88;19.35;;;;;;;8.27;61.23;102373.28;5285205;27;20920;-42
2022/01/27 03:23:35;;;;;;;45.30;18.87;;;;;;;8.21;61.27;102361.34;5285104;27;20946;-44
2022/01/27 03:26:07;;;;;;;38.87;17.03;;;;;;;8.29;61.39;102368.75;5283090;27;20484;-46
2022/01/27 03:28:40;;;;;;;40.72;19.02;;;;;;;8.32;61.40;102364.13;5277236;27;20404;-44
2022/01/27 03:31:12;;;;;;;40.85;18.33;;;;;;;8.30;61.29;102337.06;5289187;27;20467;-45
2022/01/27 03:33:45;;;;;;;43.20;17.30;;;;;;;8.37;61.40;102339.31;5284396;27;20828;-44
2022/01/27 03:36:17;;;;;;;42.97;17.83;;;;;;;8.41;61.38;102332.94;5283730;27;20415;-43
2022/01/27 03:38:51;;;;;;;39.25;16.60;;;;;;;8.44;61.44;102330.94;5277716;27;20427;-42
2022/01/27 03:41:29;;;;;;;38.70;17.27;;;;;;;8.46;61.52;102318.53;5282396;27;20495;-44
2022/01/27 03:44:05;;;;;;;39.90;16.73;;;;;;;8.49;61.29;102304.31;5277838;27;20417;-43
2022/01/27 03:46:38;;;;;;;37.50;16.30;;;;;;;8.52;61.40;102293.59;5282071;27;20406;-45
2022/01/27 03:49:10;;;;;;;44.80;16.80;;;;;;;8.52;61.49;102294.44;5280801;27;20402;-43
2022/01/27 03:51:44;;;;;;;41.33;16.48;;;;;;;8.56;61.52;102302.97;5277096;27;20402;-48
2022/01/27 03:54:19;;;;;;;41.30;15.90;;;;;;;8.58;61.45;102295.81;5282721;27;20413;-44
2022/01/27 03:56:52;;;;;;;41.80;17.52;;;;;;;8.54;61.47;102273.25;5281686;27;20414;-45
2022/01/27 03:59:26;;;;;;;34.07;16.17;;;;;;;8.63;61.53;102288.44;5278840;27;20583;-44
2022/01/27 04:01:59;;;;;;;38.50;14.63;;;;;;;8.62;61.62;102296.47;5283485;27;20545;-44
2022/01/27 04:04:31;;;;;;;41.05;16.00;;;;;;;8.62;62.03;102286.75;5276992;27;20408;-48
2022/01/27 04:07:04;;;;;;;36.08;15.82;;;;;;;8.68;61.58;102289.00;5280984;27;20773;-44
2022/01/27 04:09:38;;;;;;;38.97;15.03;;;;;;;8.58;61.72;102277.38;5283559;27;20497;-44
2022/01/27 04:12:11;;;;;;;40.08;15.25;;;;;;;8.72;61.63;102287.81;5280455;27;20826;-45
2022/01/27 04:14:44;;;;;;;39.10;15.73;;;;;;;8.70;61.62;102279.22;5280572;27;20410;-50
2022/01/27 04:17:16;;;;;;;39.13;16.23;;;;;;;8.73;61.85;102279.00;5286398;27;20420;-45
2022/01/27 04:19:49;;;;;;;39.35;15.60;;;;;;;8.73;61.68;102279.00;5286158;27;20732;-43
2022/01/27 04:22:21;;;;;;;42.55;16.67;;;;;;;8.64;61.73;102265.56;5283479;27;20548;-45
2022/01/27 04:24:58;;;;;;;47.13;16.90;;;;;;;8.74;61.78;102277.22;5276672;27;20484;-44
2022/01/27 04:27:33;;;;;;;38.58;15.73;;;;;;;8.82;61.72;102289.84;5279143;27;20480;-44
2022/01/27 04:30:13;;;;;;;39.92;16.42;;;;;;;8.85;61.66;102271.19;5287686;27;20449;-47
2022/01/27 04:32:50;;;;;;;45.45;16.38;;;;;;;8.86;61.73;102272.91;5286688;27;20415;-45
2022/01/27 04:35:26;;;;;;;44.92;16.67;;;;;;;8.87;61.60;102278.06;5284443;27;21022;-43
2022/01/27 04:38:10;;;;;;;38.87;16.07;;;;;;;8.89;61.73;102278.81;5286764;27;20550;-43
2022/01/27 04:40:53;;;;;;;41.60;15.95;;;;;;;8.92;61.74;102278.59;5279064;27;20406;-48
2022/01/27 04:43:32;;;;;;;36.88;14.98;;;;;;;8.92;61.72;102277.72;5284669;27;20842;-43
2022/01/27 04:46:14;;;;;;;47.20;17.50;;;;;;;8.90;61.66;102274.38;5281264;27;20461;-43
2022/01/27 04:48:53;;;;;;;41.03;14.85;;;;;;;8.82;61.75;102255.59;5286397;27;20394;-43
2022/01/27 04:51:26;;;;;;;32.45;13.98;;;;;;;8.83;61.77;102262.56;5287386;27;20772;-43
2022/01/27 04:54:04;;;;;;;39.95;14.45;;;;;;;8.87;61.85;102271.94;5287638;27;20418;-44
2022/01/27 04:56:40;;;;;;;39.30;13.80;;;;;;;8.91;61.98;102281.31;5279494;27;20443;-43
2022/01/27 04:59:17;;;;;;;48.50;14.23;;;;;;;8.93;62.00;102274.19;5282916;27;20398;-45
2022/01/27 05:01:54;;;;;;;39.28;13.68;;;;;;;8.92;61.99;102267.19;5281038;27;20414;-44
2022/01/27 05:04:31;;;;;;;35.88;14.30;;;;;;;8.93;61.92;102274.19;5282616;27;20812;-44
2022/01/27 05:07:05;;;;;;;42.25;16.40;;;;;;;8.95;61.86;102277.53;5285634;27;20418;-43
2022/01/27 05:09:39;;;;;;;44.97;16.17;;;;;;;8.99;61.80;102285.13;5276237;27;20766;-44
2022/01/27 05:12:20;;;;;;;47.13;15.10;;;;;;;8.91;61.95;102254.97;5285078;27;20526;-44
2022/01/27 05:14:54;;;;;;;38.50;15.25;;;;;;;9.02;61.92;102257.75;5288671;27;20407;-44
2022/01/27 05:17:26;;;;;;;38.15;15.35;;;;;;;9.00;62.02;102270.16;5286581;27;20926;-48
2022/01/27 05:19:59;;;;;;;40.90;14.23;;;;;;;9.02;62.02;102263.00;5282217;27;20757;-44
2022/01/27 05:22:32;;;;;;;41.72;15.18;;;;;;;9.09;61.84;102259.00;5282669;27;20412;-43
2022/01/27 05:25:05;;;;;;;40.50;15.20;;;;;;;8.96;61.86;102232.66;5284904;27;20408;-44
2022/01/27 05:27:39;;;;;;;46.38;15.27;;;;;;;9.07;61.76;102258.25;5285296;27;20402;-46
2022/01/27 05:30:12;;;;;;;35.53;14.10;;;;;;;9.03;62.04;102243.59;5281207;27;20429;-43
2022/01/27 05:32:44;;;;;;;47.90;14.60;;;;;;;9.09;61.98;102248.44;5288063;27;20503;-44
2022/01/27 05:35:17;;;;;;;52.63;15.75;;;;;;;9.09;62.03;102245.81;5284782;27;20433;-42
2022/01/27 05:37:49;;;;;;;46.53;15.98;;;;;;;9.10;62.14;102239.59;5281326;27;20446;-43
2022/01/27 05:40:22;;;;;;;35.80;14.93;;;;;;;9.10;62.06;102236.94;5288244;27;20410;-43
2022/01/27 05:42:56;;;;;;;46.80;14.90;;;;;;;9.07;62.12;102220.50;5280097;27;20408;-43
2022/01/27 05:45:28;;;;;;;44.45;15.40;;;;;;;9.06;62.11;102222.31;5279476;27;20415;-43
2022/01/27 05:48:01;;;;;;;41.45;16.42;;;;;;;9.11;62.10;102225.47;5278382;27;20426;-43
2022/01/27 05:50:34;;;;;;;38.75;15.43;;;;;;;9.13;62.17;102228.00;5286668;27;20432;-43
2022/01/27 05:53:06;;;;;;;38.50;14.13;;;;;;;9.13;62.24;102213.03;5284460;27;20487;-46
2022/01/27 05:55:39;;;;;;;37.85;13.95;;;;;;;9.19;62.16;102223.13;5282876;27;20410;-45
2022/01/27 05:58:13;;;;;;;48.20;15.00;;;;;;;9.21;62.09;102221.25;5276610;27;20457;-44
2022/01/27 06:00:45;;;;;;;46.10;15.65;;;;;;;9.19;62.09;102212.59;5279493;27;20487;-44
2022/01/27 06:03:18;;;;;;;42.55;15.05;;;;;;;9.22;62.11;102217.66;5277574;27;20398;-44
2022/01/27 06:05:51;;;;;;;40.03;15.17;;;;;;;9.09;62.12;102189.63;5281721;27;20837;-46
2022/01/27 06:08:25;;;;;;;47.88;16.00;;;;;;;9.23;62.19;102207.97;5283496;27;20424;-45
2022/01/27 06:10:58;;;;;;;38.75;14.07;;;;;;;8.87;62.25;102159.50;5277425;27;20498;-43
2022/01/27 06:13:32;;;;;;;41.65;14.80;;;;;;;9.22;62.31;102203.63;5284122;27;20407;-43
2022/01/27 06:16:10;;;;;;;41.40;13.60;;;;;;;9.20;62.29;102211.66;5285239;27;20430;-44
2022/01/27 06:18:42;;;;;;;43.53;16.38;;;;;;;9.19;62.31;102207.31;5282520;27;20463;-43
2022/01/27 06:21:17;;;;;;;43.10;14.57;;;;;;;9.19;62.29;102207.31;5280041;27;20418;-43
2022/01/27 06:23:49;;;;;;;42.83;15.68;;;;;;;9.16;62.40;102206.69;5277818;27;20435;-43
2022/01/27 06:26:22;;;;;;;43.42;14.98;;;;;;;9.17;62.44;102197.88;5282396;27;20414;-43
2022/01/27 06:28:56;;;;;;;46.25;14.32;;;;;;;9.15;62.50;102210.28;5289528;27;20406;-42
2022/01/27 06:31:29;;;;;;;43.60;15.10;;;;;;;9.17;62.48;102213.69;5290819;27;20798;-43
2022/01/27 06:34:01;;;;;;;44.08;15.98;;;;;;;9.14;62.47;102209.47;5280286;27;20397;-43
2022/01/27 06:36:34;;;;;;;45.78;14.40;;;;;;;9.15;62.70;102221.69;5291089;27;20463;-43
2022/01/27 06:39:06;;;;;;;40.57;15.73;;;;;;;9.07;62.61;102207.34;5290345;27;20911;-43
2022/01/27 06:41:38;;;;;;;47.42;14.80;;;;;;;9.13;62.55;102205.13;5285542;27;20486;-52
2022/01/27 06:44:12;;;;;;;43.58;14.55;;;;;;;9.15;62.76;102221.69;5283862;27;20424;-43
2022/01/27 06:46:45;;;;;;;40.43;13.77;;;;;;;9.14;62.74;102213.88;5283091;27;20510;-43
2022/01/27 06:49:17;;;;;;;45.35;13.48;;;;;;;9.14;62.85;102220.00;5281539;27;20410;-43
2022/01/27 06:51:50;;;;;;;38.08;14.25;;;;;;;9.15;62.77;102221.69;5266260;27;20789;-45
2022/01/27 06:54:22;;;;;;;39.75;14.23;;;;;;;9.11;62.81;102214.94;5280839;27;20406;-43
2022/01/27 06:56:55;;;;;;;41.30;13.93;;;;;;;9.14;62.96;102211.25;5277186;27;20428;-44
2022/01/27 06:59:29;;;;;;;41.78;14.63;;;;;;;9.11;62.98;102222.84;5289779;27;20416;-46
2022/01/27 07:02:01;;;;;;;46.90;15.68;;;;;;;9.11;63.01;102214.09;5289811;27;20510;-43
2022/01/27 07:04:34;;;;;;;50.83;15.75;;;;;;;9.03;63.09;102205.88;5284400;27;20481;-44
2022/01/27 07:07:06;;;;;;;48.55;15.40;;;;;;;8.74;63.07;102159.50;5282095;27;20438;-48
2022/01/27 07:09:39;;;;;;;44.22;16.15;;;;;;;9.07;63.04;102218.72;5274904;27;20834;-43
2022/01/27 07:12:12;;;;;;;49.40;16.38;;;;;;;9.13;63.31;102223.56;5281602;27;20834;-43
2022/01/27 07:14:46;;;;;;;50.67;15.80;;;;;;;9.06;63.40;102230.22;5285073;27;20769;-43
2022/01/27 07:17:20;;;;;;;47.07;14.47;;;;;;;9.12;63.37;102216.63;5285362;27;20462;-43
2022/01/27 07:19:52;;;;;;;42.38;15.40;;;;;;;9.10;63.20;102228.22;5273974;27;20484;-45
2022/01/27 07:22:24;;;;;;;44.07;14.97;;;;;;;9.14;63.36;102235.81;5282512;27;20487;-48
2022/01/27 07:24:57;;;;;;;46.70;14.90;;;;;;;9.15;63.49;102237.50;5287323;27;20502;-46
2022/01/27 07:27:31;;;;;;;49.05;16.27;;;;;;;9.14;63.46;102232.34;5294255;27;20385;-45
2022/01/27 07:30:06;;;;;;;43.47;14.90;;;;;;;9.14;63.45;102229.69;5285262;27;20409;-43
2022/01/27 07:32:39;;;;;;;44.60;15.80;;;;;;;9.14;63.52;102220.00;5273412;27;20410;-46
2022/01/27 07:35:12;;;;;;;49.95;15.70;;;;;;;9.15;63.63;102223.47;5284147;27;20452;-43
2022/01/27 07:37:46;;;;;;;55.92;15.27;;;;;;;9.10;63.70;102221.13;5285233;27;20432;-46
2022/01/27 07:40:18;;;;;;;48.05;15.60;;;;;;;9.14;63.61;102222.63;5284288;27;20406;-46
2022/01/27 07:42:51;;;;;;;47.83;14.45;;;;;;;9.09;63.73;102219.47;5285550;27;20453;-48
2022/01/27 07:45:25;;;;;;;61.08;16.63;;;;;;;9.15;63.79;102226.09;5285154;27;20525;-47
2022/01/27 07:47:58;;;;;;;45.65;15.80;;;;;;;9.05;63.92;102225.91;5289557;27;20411;-46
2022/01/27 07:50:33;;;;;;;49.75;14.75;;;;;;;9.14;63.83;102230.53;5287368;27;20422;-46
2022/01/27 07:53:06;;;;;;;49.53;15.50;;;;;;;9.12;64.03;102226.31;5286780;27;20493;-47
2022/01/27 07:55:40;;;;;;;54.10;16.60;;;;;;;9.06;63.96;102211.78;5288145;27;20502;-49
2022/01/27 07:58:12;;;;;;;54.67;15.63;;;;;;;9.18;63.95;102234.63;5284153;27;20410;-48
2022/01/27 08:00:46;;;;;;;61.42;16.63;;;;;;;9.18;64.02;102234.63;5283312;27;20419;-49
2022/01/27 08:03:19;;;;;;;51.22;14.70;;;;;;;9.22;64.24;102249.28;5285665;27;20852;-45
2022/01/27 08:05:52;;;;;;;46.13;14.87;;;;;;;9.21;64.11;102258.16;5288214;27;20442;-47
2022/01/27 08:08:25;;;;;;;48.42;14.63;;;;;;;9.22;64.06;102238.75;5289973;27;20908;-48
2022/01/27 08:10:58;;;;;;;47.13;14.68;;;;;;;9.23;64.05;102251.00;5291304;27;20789;-46
2022/01/27 08:13:31;;;;;;;39.88;15.05;;;;;;;9.28;64.17;102247.19;5288962;27;20436;-50
2022/01/27 08:16:05;;;;;;;52.22;16.00;;;;;;;9.20;64.26;102240.66;5290790;27;20825;-48
2022/01/27 08:18:38;;;;;;;36.85;14.13;;;;;;;9.27;64.26;102234.97;5284218;27;20415;-47
2022/01/27 08:21:10;;;;;;;48.50;14.88;;;;;;;9.28;64.34;102236.63;5278077;27;20437;-51
2022/01/27 08:24:20;;;;;;;42.15;14.60;;;;;;;9.29;64.24;102239.19;5277898;27;20489;-48
2022/01/27 08:26:59;;;;;;;45.63;12.63;;;;;;;9.28;64.49;102241.91;5279824;27;21070;-46
2022/01/27 08:29:36;;;;;;;42.10;13.25;;;;;;;9.33;64.43;102245.09;5284062;27;20873;-44
2022/01/27 08:32:16;;;;;;;41.00;13.07;;;;;;;9.34;64.40;102230.94;5278893;27;20416;-46
2022/01/27 08:34:49;;;;;;;40.20;12.85;;;;;;;9.36;64.38;102234.31;5280878;27;20428;-47
2022/01/27 08:37:21;;;;;;;43.47;13.07;;;;;;;9.40;64.56;102239.25;5285580;27;20422;-48
2022/01/27 08:39:54;;;;;;;38.78;11.90;;;;;;;9.35;64.29;102228.22;5282728;27;20446;-46
2022/01/27 08:42:27;;;;;;;41.95;12.95;;;;;;;9.44;64.40;102239.88;5280035;27;20450;-45
2022/01/27 08:44:59;;;;;;;40.83;13.15;;;;;;;9.46;64.59;102241.47;5282962;27;20406;-45
2022/01/27 08:47:33;;;;;;;41.60;11.82;;;;;;;9.48;64.49;102238.72;5279009;27;20409;-50
2022/01/27 08:50:08;;;;;;;47.85;12.10;;;;;;;9.40;64.54;102209.41;5277360;27;20489;-47
2022/01/27 08:52:42;;;;;;;36.88;12.57;;;;;;;9.44;64.57;102218.78;5277106;27;20480;-46
2022/01/27 08:55:16;;;;;;;42.22;12.43;;;;;;;9.56;64.65;102219.72;5278579;27;20537;-50
2022/01/27 08:57:48;;;;;;;32.75;10.93;;;;;;;9.57;64.69;102232.81;5280950;27;20505;-47
2022/01/27 09:00:21;;;;;;;38.67;11.45;;;;;;;9.39;64.65;102176.09;5276575;27;20853;-48
2022/01/27 09:02:56;;;;;;;27.42;10.25;;;;;;;9.63;64.70;102227.09;5277905;27;20649;-48
2022/01/27 09:05:29;;;;;;;32.55;10.95;;;;;;;9.63;64.73;102226.22;5277629;27;20398;-45
2022/01/27 09:08:02;;;;;;;32.13;11.38;;;;;;;9.64;64.74;102220.84;5267495;27;20417;-45
2022/01/27 09:10:34;;;;;;;38.55;11.40;;;;;;;9.62;64.92;102214.00;5263665;27;20416;-44
2022/01/27 09:13:07;;;;;;;30.88;10.65;;;;;;;9.69;64.78;102215.25;5277854;27;20529;-45
2022/01/27 09:15:39;;;;;;;35.33;10.80;;;;;;;9.72;64.84;102220.28;5272461;27;20426;-46
2022/01/27 09:18:14;;;;;;;36.13;10.57;;;;;;;9.70;64.68;102228.34;5279336;27;20882;-48
2022/01/27 09:20:46;;;;;;;39.35;11.80;;;;;;;9.72;64.96;102225.56;5282078;27;21136;-47
2022/01/27 09:23:19;;;;;;;40.28;11.02;;;;;;;9.74;64.92;102223.66;5283104;27;20549;-48
2022/01/27 09:25:55;;;;;;;34.92;10.40;;;;;;;9.73;64.76;102213.25;5281853;27;20531;-52
2022/01/27 09:28:28;;;;;;;35.25;10.82;;;;;;;9.58;64.78;102196.72;5276022;27;20919;-49
2022/01/27 09:31:01;;;;;;;35.30;10.05;;;;;;;9.76;64.91;102224.41;5284647;27;20398;-52
2022/01/27 09:33:35;;;;;;;30.58;10.57;;;;;;;9.67;64.86;102210.09;5279220;27;20889;-49
2022/01/27 09:36:11;;;;;;;34.63;10.30;;;;;;;9.76;64.90;102224.41;5286899;27;20840;-47
2022/01/27 09:38:44;;;;;;;39.08;10.80;;;;;;;9.77;64.95;102228.72;5277545;27;20999;-48
2022/01/27 09:41:20;;;;;;;33.85;9.68;;;;;;;9.45;64.84;102180.94;5280289;27;20427;-46
2022/01/27 09:43:53;;;;;;;30.17;9.27;;;;;;;9.82;64.94;102238.97;5279640;27;20434;-48
2022/01/27 09:46:27;;;;;;;36.10;9.93;;;;;;;9.82;65.00;102237.16;5276821;27;20425;-46
2022/01/27 09:49:10;;;;;;;33.40;10.70;;;;;;;9.81;64.98;102234.63;5279293;27;20445;-44
2022/01/27 09:52:32;;;;;;;39.20;9.45;;;;;;;9.84;65.00;102240.53;5275663;27;20435;-50
2022/01/27 09:55:06;;;;;;;28.83;8.75;;;;;;;9.82;65.09;102245.09;5279839;27;20916;-46
2022/01/27 09:57:38;;;;;;;34.47;9.38;;;;;;;9.85;65.09;102244.88;5279240;27;20527;-44
2022/01/27 10:00:13;;;;;;;31.67;8.93;;;;;;;9.84;65.06;102253.72;5276380;27;20418;-45
2022/01/27 10:03:08;;;;;;;31.63;8.77;;;;;;;9.91;65.11;102272.63;5274353;27;20567;-48
2022/01/27 10:05:44;;;;;;;35.55;9.40;;;;;;;9.92;64.96;102264.56;5271014;27;20442;-49
2022/01/27 10:08:21;;;;;;;32.47;9.10;;;;;;;9.93;65.17;102263.59;5282421;27;20556;-51
2022/01/27 10:10:56;;;;;;;35.50;8.32;;;;;;;9.95;65.37;102263.50;5281177;27;20420;-48
2022/01/27 10:13:32;;;;;;;28.95;9.10;;;;;;;10.00;65.08;102256.09;5281530;27;21910;-46
2022/01/27 10:16:07;;;;;;;29.45;8.95;;;;;;;10.04;65.12;102262.84;5279972;27;20402;-49
2022/01/27 10:18:43;;;;;;;34.75;8.30;;;;;;;10.10;65.06;102272.13;5274177;27;20458;-47
2022/01/27 10:21:19;;;;;;;24.13;8.38;;;;;;;10.10;65.02;102269.47;5280908;27;20441;-49
2022/01/27 10:23:53;;;;;;;30.95;8.88;;;;;;;10.11;64.97;102263.25;5273472;27;20406;-47
2022/01/27 10:26:31;;;;;;;25.55;7.30;;;;;;;10.20;64.94;102267.00;5275661;27;20503;-49
2022/01/27 10:29:09;;;;;;;30.52;8.02;;;;;;;10.21;64.99;102268.69;5276464;27;20561;-50
2022/01/27 10:31:42;;;;;;;29.75;8.65;;;;;;;10.23;64.86;102282.63;5273197;27;20754;-45
2022/01/27 10:34:15;;;;;;;31.75;7.80;;;;;;;10.33;64.90;102291.59;5274484;27;20487;-48
2022/01/27 10:36:56;;;;;;;24.73;7.85;;;;;;;10.38;65.01;102282.38;5281312;27;20430;-48
2022/01/27 10:39:28;;;;;;;30.23;7.40;;;;;;;10.07;64.82;102225.66;5281107;27;20437;-49
2022/01/27 10:42:07;;;;;;;28.93;7.43;;;;;;;10.35;64.96;102268.56;5276623;27;20516;-49
2022/01/27 10:44:46;;;;;;;30.00;7.53;;;;;;;10.43;64.98;102276.72;5270509;27;20420;-47
2022/01/27 10:47:23;;;;;;;37.83;7.10;;;;;;;10.42;64.99;102279.50;5278204;27;20426;-47
2022/01/27 10:49:59;;;;;;;27.35;7.50;;;;;;;10.41;65.05;102285.75;5273968;27;20424;-47
2022/01/27 10:52:38;;;;;;;41.65;9.40;;;;;;;10.33;65.10;102267.81;5283458;27;20775;-49
2022/01/27 10:55:13;;;;;;;36.17;8.68;;;;;;;10.43;65.06;102271.44;5274358;27;20404;-51
2022/01/27 10:57:50;;;;;;;25.27;7.50;;;;;;;10.30;65.18;102273.31;5270544;27;20852;-47
2022/01/27 11:00:26;;;;;;;22.52;7.65;;;;;;;10.50;65.03;102280.63;5278701;27;20422;-49
2022/01/27 11:03:02;;;;;;;23.70;7.30;;;;;;;10.52;65.03;102273.41;5279829;27;20395;-47
2022/01/27 11:05:42;;;;;;;29.35;7.22;;;;;;;10.52;65.14;102273.41;5275265;27;20655;-50
2022/01/27 11:08:18;;;;;;;20.92;7.22;;;;;;;10.57;65.09;102279.22;5272216;27;20424;-49
2022/01/27 11:10:52;;;;;;;23.45;7.50;;;;;;;10.57;65.04;102265.16;5279107;27;20431;-49
2022/01/27 11:13:26;;;;;;;29.77;7.18;;;;;;;10.51;65.05;102262.97;5282701;27;20774;-49
2022/01/27 11:15:58;;;;;;;31.25;7.93;;;;;;;10.57;65.07;102271.28;5282083;27;20785;-49
2022/01/27 11:18:31;;;;;;;25.43;7.10;;;;;;;10.59;65.00;102269.38;5284088;27;20403;-46
2022/01/27 11:21:10;;;;;;;30.55;7.88;;;;;;;10.62;65.10;102284.13;5279611;27;20920;-47
2022/01/27 11:24:01;;;;;;;32.23;7.47;;;;;;;10.58;65.13;102266.84;5276538;27;20405;-47
2022/01/27 11:26:37;;;;;;;29.20;7.07;;;;;;;10.59;65.12;102258.81;5274870;27;20426;-46
2022/01/27 11:29:12;;;;;;;27.00;7.55;;;;;;;10.57;65.10;102281.00;5272017;27;20415;-52
2022/01/27 11:32:10;;;;;;;27.98;7.32;;;;;;;10.59;65.02;102268.50;5277890;27;20408;-46
2022/01/27 11:34:49;;;;;;;20.00;6.63;;;;;;;10.63;65.01;102277.06;5272107;27;20499;-47
2022/01/27 11:37:33;;;;;;;31.05;7.50;;;;;;;10.66;65.10;102268.91;5285373;27;20496;-48
2022/01/27 11:40:10;;;;;;;20.73;6.63;;;;;;;10.59;64.99;102261.44;5286874;27;20406;-47
2022/01/27 11:43:07;;;;;;;29.58;7.85;;;;;;;10.75;64.94;102270.88;5281493;27;20839;-50
2022/01/27 11:45:42;;;;;;;30.20;7.53;;;;;;;10.77;64.98;102274.22;5282320;27;20399;-48
2022/01/27 11:48:19;;;;;;;19.95;6.72;;;;;;;10.75;64.94;102255.84;5287599;27;20422;-46
2022/01/27 11:50:54;;;;;;;25.23;7.85;;;;;;;10.87;64.79;102259.38;5282800;27;20426;-52
2022/01/27 11:53:48;;;;;;;25.13;7.30;;;;;;;10.92;64.83;102265.13;5277317;27;20402;-49
2022/01/27 11:56:37;;;;;;;22.70;6.50;;;;;;;10.77;64.70;102235.41;5286060;27;20823;-46
2022/01/27 11:59:10;;;;;;;26.05;7.20;;;;;;;10.98;64.78;102256.72;5283175;27;20403;-48
2022/01/27 12:01:57;;;;;;;22.80;6.35;;;;;;;11.06;64.76;102262.28;5284445;27;20781;-46
2022/01/27 12:04:30;;;;;;;19.13;6.25;;;;;;;10.95;64.81;102233.16;5279899;28;20498;-47
2022/01/27 12:07:07;;;;;;;25.05;6.30;;;;;;;11.11;64.57;102243.41;5279770;27;20471;-44
2022/01/27 12:09:40;;;;;;;21.10;5.93;;;;;;;11.24;64.72;102259.16;5277994;27;20490;-47
2022/01/27 12:12:31;;;;;;;26.63;6.88;;;;;;;11.27;64.79;102254.50;5274129;27;20875;-49
2022/01/27 12:15:10;;;;;;;23.90;7.50;;;;;;;11.28;64.70;102248.22;5285161;27;20967;-46